Flight Track Log - Related Links

Times and Time Zones

All times are in EDT time to prevent confusion due to time zone crossing. See the ASQ6023 flight status page for this flight to view local times or setup timezone preferences in your user account.

Time Position Orientation Groundspeed Altitude Reporting Facility
EDT Latitude Longitude Course Direction KTS MPH feet Rate Location/Type
Sun 09:52:47 AM 45.4667 -73.7000 207° Southwest 130 150 800  Level Montreal Center
Sun 09:53:47 AM 45.5000 -73.6500 46° Northeast 200 230 2,600 1,950 Climbing Montreal Center
Sun 09:54:47 AM 45.5333 -73.6000 46° Northeast 220 253 4,700 2,050 Climbing Montreal Center
Sun 09:55:47 AM 45.4833 -73.5000 125° Southeast 260 299 6,700 2,200 Climbing Montreal Center
Sun 09:56:47 AM 45.4167 -73.4833 170° South 270 311 9,100 1,900 Climbing Montreal Center
Sun 09:57:00 AM 45.0981 -74.0014 207° Southwest  Level FlightAware Approximate
Sun 09:57:47 AM 45.3500 -73.4333 152° Southeast 290 334 10,500  Level Montreal Center
Sun 09:58:47 AM 45.2667 -73.5000 209° Southwest 330 380 11,700 1,350 Climbing Montreal Center
Sun 09:59:47 AM 45.1833 -73.6000 220° Southwest 340 391 13,200 1,400 Climbing Montreal Center
Sun 10:00:47 AM 45.1167 -73.6667 215° Southwest 350 403 14,500 1,300 Climbing Montreal Center
Sun 10:01:47 AM 45.0333 -73.7333 209° Southwest 350 403 15,800 1,350 Climbing Montreal Center
Sun 10:02:47 AM 44.9500 -73.8333 220° Southwest 360 414 17,200 1,100 Climbing Montreal Center
Sun 10:03:47 AM 44.8833 -73.9333 227° Southwest 360 414 18,000 950 Climbing Montreal Center
Sun 10:04:47 AM 44.8000 -74.0333 220° Southwest 370 426 19,100 1,050 Climbing Montreal Center
Sun 10:05:47 AM 44.7333 -74.1500 231° Southwest 380 437 20,100 1,050 Climbing Montreal Center
Sun 10:06:47 AM 44.6500 -74.2500 221° Southwest 380 437 21,200 1,100 Climbing Montreal Center
Sun 10:07:47 AM 44.5833 -74.3500 227° Southwest 390 449 22,300 1,050 Climbing Montreal Center
Sun 10:08:47 AM 44.5000 -74.4667 225° Southwest 390 449 23,300 1,050 Climbing Montreal Center
Sun 10:09:47 AM 44.4167 -74.5667 221° Southwest 390 449 24,400 1,000 Climbing Montreal Center
Sun 10:10:47 AM 44.3500 -74.6833 231° Southwest 390 449 25,300 950 Climbing Montreal Center
Sun 10:11:47 AM 44.2667 -74.7833 221° Southwest 390 449 26,300 950 Climbing Montreal Center
Sun 10:12:47 AM 44.1833 -74.8667 216° Southwest 390 449 27,200 950 Climbing Montreal Center
Sun 10:13:47 AM 44.1000 -74.9833 225° Southwest 390 449 28,200 950 Climbing Montreal Center
Sun 10:14:47 AM 44.0333 -75.0833 227° Southwest 390 449 29,100 950 Climbing Montreal Center
Sun 10:15:47 AM 43.9500 -75.2000 225° Southwest 390 449 30,100 950 Climbing Montreal Center
Sun 10:16:47 AM 43.8667 -75.3000 221° Southwest 390 449 31,000 950 Climbing Montreal Center
Sun 10:17:47 AM 43.7833 -75.3833 216° Southwest 390 449 32,000 500 Climbing Montreal Center
Sun 10:18:47 AM 43.7000 -75.5000 225° Southwest 400 460 32,000  Level Montreal Center
Sun 10:19:47 AM 43.6167 -75.6167 225° Southwest 420 483 32,000  Level Montreal Center
Sun 10:20:47 AM 43.5333 -75.7167 221° Southwest 420 483 32,000  Level Montreal Center
Sun 10:21:47 AM 43.4500 -75.8333 225° Southwest 420 483 32,000 -200 Level Montreal Center
Sun 10:22:47 AM 43.3500 -75.9500 220° Southwest 420 483 31,600 -650 Descending Montreal Center
Sun 10:23:47 AM 43.2667 -76.0333 216° Southwest 420 483 30,700 -800 Descending Montreal Center
Sun 10:24:47 AM 43.1833 -76.1500 226° Southwest 420 483 30,000 -407 Descending Montreal Center
Sun 10:25:45 AM 43.1106 -76.2514 226° Southwest 431 496 29,900  Descending Cleveland Center
Sun 10:26:45 AM 43.0075 -76.3353 211° Southwest 431 496 30,000 50 Climbing Cleveland Center
Sun 10:27:45 AM 42.9042 -76.4189 211° Southwest 431 496 30,000  Level Cleveland Center
Sun 10:28:45 AM 42.7989 -76.5053 211° Southwest 438 504 30,000  Level Cleveland Center
Sun 10:29:28 AM 42.7186 -76.5692 210° Southwest 441 507 30,000  Level New York Center
Sun 10:30:30 AM 42.6297 -76.6400 210° Southwest 430 495 30,000  Level New York Center
Sun 10:31:28 AM 42.5281 -76.7208 210° Southwest 430 495 30,000  Level New York Center
Sun 10:32:29 AM 42.4278 -76.8072 212° Southwest 430 495 30,000  Level New York Center
Sun 10:33:28 AM 42.3258 -76.8906 211° Southwest 435 501 30,000 -49 Level New York Center
Sun 10:34:31 AM 42.2217 -76.9733 210° Southwest 435 501 29,900 -550 Descending New York Center
Sun 10:35:28 AM 42.1175 -77.0528 210° Southwest 435 501 28,900 -974 Descending New York Center
Sun 10:36:28 AM 42.0150 -77.1381 212° Southwest 440 506 28,000 -450 Descending New York Center
Sun 10:37:28 AM 41.9108 -77.2172 209° Southwest 440 506 28,000  Level New York Center
Sun 10:38:28 AM 41.8061 -77.3044 212° Southwest 445 512 28,000  Level New York Center
Sun 10:39:29 AM 41.6994 -77.3886 211° Southwest 445 512 28,000  Level New York Center
Sun 10:40:30 AM 41.5950 -77.4700 210° Southwest 445 512 28,000  Level New York Center
Sun 10:41:31 AM 41.4881 -77.5533 210° Southwest 445 512 28,000 -254 Level New York Center
Sun 10:42:28 AM 41.3747 -77.6056 199° South 445 512 27,500 -923 Descending New York Center
Sun 10:43:28 AM 41.2494 -77.5708 168° South 431 496 26,200 -1,388 Descending New York Center
Sun 10:44:29 AM 41.1294 -77.5203 162° South 443 510 24,700 -1,686 Descending New York Center
Sun 10:45:29 AM 41.0153 -77.4758 164° South 443 510 22,800 -1,918 Descending New York Center
Sun 10:46:31 AM 40.9031 -77.4319 164° South 437 503 20,800 -1,966 Descending New York Center
Sun 10:47:28 AM 40.7953 -77.3883 163° South 426 490 18,900 -1,412 Descending New York Center
Sun 10:48:30 AM 40.6892 -77.3453 163° South 413 475 18,000 -439 Descending New York Center
Sun 10:49:31 AM 40.5708 -77.3011 164° South 407 468 18,000  Level New York Center
Sun 10:50:28 AM 40.4747 -77.2647 164° South 407 468 18,000  Level New York Center
Sun 10:51:29 AM 40.3600 -77.2294 167° South 402 463 18,000 -829 Level New York Center
Sun 10:53:00 AM 40.2000 -77.2333 181° South 379 436 15,900 -1,430 Descending Potomac TRACON
Sun 10:54:00 AM 40.0833 -77.2333 180° South 381 438 14,400 -1,350 Descending Potomac TRACON
Sun 10:55:00 AM 39.9833 -77.2500 187° South 365 420 13,200 -694 Descending Potomac TRACON
Sun 10:56:01 AM 39.8833 -77.2667 187° South 366 421 13,000 -417 Descending Potomac TRACON
Sun 10:56:55 AM 39.8000 -77.2833 189° South 357 411 12,400 -1,400 Descending Potomac TRACON
Sun 10:58:01 AM 39.7000 -77.3167 194° South 314 361 10,200 -1,200 Descending Potomac TRACON
Sun 10:58:55 AM 39.6333 -77.3333 191° South 260 299 10,000 -684 Descending Potomac TRACON
Sun 10:59:55 AM 39.5833 -77.3833 218° Southwest 251 289 8,900 -1,300 Descending Potomac TRACON
Sun 11:00:55 AM 39.5167 -77.4333 210° Southwest 249 287 7,400 -942 Descending Potomac TRACON
Sun 11:01:56 AM 39.4500 -77.4500 191° South 245 282 7,000 -261 Descending Potomac TRACON
Sun 11:02:50 AM 39.3833 -77.4500 180° South 244 281 6,900 -789 Descending Potomac TRACON
Sun 11:03:50 AM 39.3167 -77.4500 180° South 241 277 5,500 -1,150 Descending Potomac TRACON
Sun 11:04:50 AM 39.2500 -77.4500 180° South 228 262 4,600 -750 Descending Potomac TRACON
Sun 11:05:50 AM 39.2000 -77.4500 180° South 226 260 4,000 -545 Descending Potomac TRACON
Sun 11:06:51 AM 39.1333 -77.4500 180° South 224 258 3,500 -843 Descending Potomac TRACON
Sun 11:07:51 AM 39.0667 -77.4500 180° South 213 245 2,300 -1,050 Descending Potomac TRACON
Sun 11:08:51 AM 39.0167 -77.4667 195° South 151 174 1,400 -842 Descending Potomac TRACON
Sun 11:09:45 AM 39.0000 -77.4667 180° South 120 138 700 -778 Descending Potomac TRACON
Sun 11:11:00 AM 38.9474 -77.4599 180° South  Level Estimated
Sun 11:18:00 AM 38.9474 -77.4599 349° North  Level Estimated
Sun 11:19:00 AM 38.9474 -77.4599 349° North  Level Estimated
Sun 11:20:00 AM 38.9474 -77.4599 349° North  Level Estimated
Sun 11:21:00 AM 38.9474 -77.4599 349° North  Level Estimated

Login

Don't have an account? Register now (free) for customized features, flight alerts, and more!